首页
METAR-TAF:

METAR-TAF

机场 :

本-古里安国际机场

特拉维夫 / 本·古里安, 以色列

纬度: 32-00N, 经度: 034-54E, 海拔: 40米

当前天气观测

该预报发布于25分钟前的02:20 UTC
风速2节,风向多变
温度 17°C
湿度 77%
气压 1010 hPa
能见度10公里或以上
1500米以下无云,无积雨云

METAR: LLBG 170220Z VRB02KT CAVOK 17/13 Q1010 NOSIG

时间: 05:45 (02:45 UTC)

预报

该预报发布于3小时和42分钟前的23:03 UTC
预报有效从17日的 00点(UTC)到 17日的 24点(UTC)
风速4节,风向多变
能见度10公里或以上
1500米以下无云,无积雨云
成为
从 17日的 08点(UTC)到 17日的 10点(UTC)
风速8节,风向西转西北
成为
从 17日的 13点(UTC)到 17日的 15点(UTC)
风速6节,风向北转东北
成为
从 17日的 19点(UTC)到 17日的 21点(UTC)
风速4节,风向东转东南

TAF: LLBG 162303Z 1700/1724 VRB04KT CAVOK BECMG 1708/1710 30008KT BECMG 1713/1715 03006KT BECMG 1719/1721 12004KT TX34/1712Z TN16/1704Z

超过4000个机场的气象观测和天气预报(METAR&TAF报告)。

可查询的气象台以黄色和红色小点在地图上表示。

将鼠标移到小点上方,可查看气象台名称。

然后点击查看天气观测和预报。

如需切换地图:点击带黑十字的绿色按钮放大地图;点击带横线的绿色按钮缩小地图;或者点击绿色箭头查看邻近地区的地图。


METAR-TAF: